Time;durP1;ratioP1;P1;durP2;ratioP2;P2;SDS_P1;SDS_P2;PMS_P1;PMS_P2;Temp;Humidity;BMP_temperature;BMP_pressure;BME280_temperature;BME280_humidity;BME280_pressure;Samples;Min_cycle;Max_cycle;Signal;HPM_P1;HPM_P2
2022/10/28 00:00:13;;;;;;;13.65;8.13;;;;;;;8.65;70.73;100717.38;4882917;29;20454;-91
2022/10/28 00:02:39;;;;;;;18.70;11.18;;;;;;;8.56;70.95;100707.97;4903866;29;20094;-90
2022/10/28 00:05:05;;;;;;;17.02;10.65;;;;;;;8.63;71.39;100734.75;4902921;29;20406;-91
2022/10/28 00:07:31;;;;;;;15.20;11.23;;;;;;;8.49;71.50;100724.16;4897768;29;20095;-90
2022/10/28 00:09:56;;;;;;;17.98;10.20;;;;;;;8.56;70.43;100707.16;4906390;29;20024;-91
2022/10/28 00:12:22;;;;;;;15.38;9.40;;;;;;;8.67;71.19;100722.50;4906452;29;20035;-90
2022/10/28 00:14:47;;;;;;;18.55;11.95;;;;;;;8.61;71.48;100736.81;4891451;29;20384;-91
2022/10/28 00:17:15;;;;;;;17.38;11.60;;;;;;;8.63;71.51;100734.75;4913044;29;20115;-91
2022/10/28 00:19:41;;;;;;;13.73;10.23;;;;;;;8.60;70.99;100716.41;4914168;29;20035;-91
2022/10/28 00:22:06;;;;;;;16.20;10.43;;;;;;;8.62;70.81;100714.31;4917270;29;20035;-91
2022/10/28 00:24:32;;;;;;;17.92;11.55;;;;;;;8.57;71.19;100715.00;4893055;29;20082;-91
2022/10/28 00:26:57;;;;;;;18.67;11.38;;;;;;;8.45;71.38;100706.84;4901295;29;20063;-91
2022/10/28 00:29:23;;;;;;;17.30;12.07;;;;;;;8.42;71.49;100717.19;4896600;29;20032;-91
2022/10/28 00:31:49;;;;;;;18.98;10.38;;;;;;;8.44;71.46;100733.91;4902776;29;20036;-91
2022/10/28 00:34:16;;;;;;;14.75;9.63;;;;;;;8.42;71.58;100718.00;4902506;29;20024;-91
2022/10/28 00:36:43;;;;;;;12.50;9.93;;;;;;;8.62;70.26;100722.38;4913702;29;20070;-91
2022/10/28 00:39:17;;;;;;;13.23;8.57;;;;;;;8.42;71.09;100712.63;4891150;29;20024;-91
2022/10/28 00:41:44;;;;;;;15.73;9.00;;;;;;;8.42;71.56;100715.31;4906476;29;20031;-91
2022/10/28 00:44:38;;;;;;;17.25;7.63;;;;;;;8.53;71.17;100737.97;4902318;29;20103;-91
2022/10/28 00:47:04;;;;;;;11.45;7.43;;;;;;;8.40;71.57;100709.31;4927100;29;20050;-91
2022/10/28 00:49:31;;;;;;;7.97;5.18;;;;;;;8.44;71.06;100721.28;4904025;29;20039;-90
2022/10/28 00:52:02;;;;;;;10.32;5.80;;;;;;;8.52;71.08;100736.31;4902541;29;20027;-91
2022/10/28 00:54:28;;;;;;;8.50;4.97;;;;;;;8.36;70.77;100718.03;4889925;29;20106;-91
2022/10/28 00:56:54;;;;;;;9.65;4.90;;;;;;;8.40;71.03;100724.63;4890008;29;20027;-91
2022/10/28 00:59:28;;;;;;;10.63;5.00;;;;;;;8.35;71.94;100724.47;4890064;29;20062;-91
2022/10/28 01:01:54;;;;;;;8.30;4.72;;;;;;;8.26;71.92;100719.38;4904715;29;20028;-90
2022/10/28 01:04:19;;;;;;;11.18;5.18;;;;;;;8.23;71.56;100719.81;4905284;29;20035;-91
2022/10/28 01:06:45;;;;;;;11.98;4.78;;;;;;;8.06;71.87;100711.47;4887864;29;20035;-91
2022/10/28 01:09:10;;;;;;;7.78;4.50;;;;;;;7.96;71.97;100699.59;4887772;29;20024;-91
2022/10/28 01:11:42;;;;;;;6.18;4.00;;;;;;;8.08;71.79;100717.44;4902699;29;20035;-91
2022/10/28 01:14:16;;;;;;;6.25;4.15;;;;;;;8.15;72.27;100730.81;4898482;29;20051;-91
2022/10/28 01:17:18;;;;;;;8.07;4.65;;;;;;;8.16;71.52;100711.00;4925399;29;20616;-90
2022/10/28 01:20:35;;;;;;;6.55;3.80;;;;;;;8.42;71.71;100730.63;4907712;29;20063;-90
2022/10/28 01:23:03;;;;;;;6.47;3.13;;;;;;;8.61;70.70;100735.00;4881730;29;20084;-90
2022/10/28 01:25:50;;;;;;;5.35;3.53;;;;;;;8.72;70.47;100737.97;4919401;29;20034;-91
2022/10/28 01:28:36;;;;;;;7.45;3.10;;;;;;;8.53;70.50;100705.75;4920865;29;20450;-91
2022/10/28 01:31:23;;;;;;;6.22;3.03;;;;;;;8.80;70.04;100734.97;4911393;29;20028;-90
2022/10/28 01:34:13;;;;;;;6.97;3.17;;;;;;;8.89;69.59;100739.03;4920222;29;20522;-92
2022/10/28 01:37:00;;;;;;;6.40;3.13;;;;;;;8.97;69.37;100741.41;4899749;29;20031;-91
2022/10/28 01:39:34;;;;;;;4.28;2.58;;;;;;;9.04;69.27;100735.97;4919121;29;20059;-91
2022/10/28 01:42:12;;;;;;;4.63;2.60;;;;;;;9.13;69.05;100736.47;4880637;29;20024;-91
2022/10/28 01:44:47;;;;;;;7.80;3.42;;;;;;;9.01;69.13;100739.13;4924367;29;20118;-90
2022/10/28 01:47:21;;;;;;;5.53;3.50;;;;;;;8.66;69.70;100728.94;4903470;29;20513;-90
2022/10/28 01:49:56;;;;;;;5.18;3.53;;;;;;;8.55;69.95;100719.75;4902296;29;20495;-91
2022/10/28 01:52:24;;;;;;;9.48;3.92;;;;;;;8.49;69.94;100732.19;4903933;29;20059;-91
2022/10/28 01:54:52;;;;;;;7.30;3.53;;;;;;;8.37;69.68;100730.44;4902900;29;20064;-91
2022/10/28 01:57:18;;;;;;;6.15;3.55;;;;;;;8.14;69.74;100714.94;4900705;29;20031;-91
2022/10/28 01:59:44;;;;;;;6.68;4.25;;;;;;;7.94;70.66;100710.53;4900079;29;20044;-90
2022/10/28 02:02:09;;;;;;;5.95;3.90;;;;;;;7.95;70.43;100722.94;4886071;29;20091;-91
2022/10/28 02:04:37;;;;;;;9.25;4.72;;;;;;;7.76;70.81;100710.47;4902108;29;20514;-90
2022/10/28 02:07:03;;;;;;;6.22;4.20;;;;;;;7.66;71.16;100714.47;4901294;29;20028;-90
2022/10/28 02:09:54;;;;;;;8.30;5.32;;;;;;;7.69;72.19;100737.31;4870053;29;20028;-89
2022/10/28 02:12:32;;;;;;;8.25;4.25;;;;;;;7.49;72.50;100726.69;4902970;29;20039;-91
2022/10/28 02:15:32;;;;;;;8.40;4.22;;;;;;;7.72;72.07;100736.06;4882126;29;20027;-91
2022/10/28 02:18:26;;;;;;;6.15;3.95;;;;;;;7.78;71.39;100730.69;4925355;29;20039;-91
2022/10/28 02:20:57;;;;;;;7.50;3.70;;;;;;;7.79;71.33;100716.22;4905329;29;20067;-91
2022/10/28 02:23:45;;;;;;;5.65;4.10;;;;;;;7.73;71.71;100738.53;4897540;29;20032;-91
2022/10/28 02:26:31;;;;;;;8.27;5.03;;;;;;;7.48;72.21;100719.72;4909752;29;20035;-90
2022/10/28 02:29:18;;;;;;;9.35;4.43;;;;;;;7.49;72.70;100735.59;4899760;29;20202;-91
2022/10/28 02:31:47;;;;;;;9.18;4.07;;;;;;;7.37;72.88;100726.56;4909406;29;20047;-92
2022/10/28 02:34:17;;;;;;;8.73;5.43;;;;;;;7.30;73.20;100728.44;4892947;29;20036;-89
2022/10/28 02:36:45;;;;;;;8.45;4.35;;;;;;;7.28;72.92;100722.50;4897068;29;20036;-90
2022/10/28 02:39:10;;;;;;;6.20;3.88;;;;;;;7.29;73.15;100733.00;4887640;29;20032;-90
2022/10/28 02:41:46;;;;;;;5.82;3.95;;;;;;;7.15;73.55;100715.34;4899275;29;20036;-90
2022/10/28 02:44:17;;;;;;;9.23;4.35;;;;;;;7.17;73.41;100718.63;4900777;29;20028;-89
2022/10/28 02:46:44;;;;;;;11.10;4.45;;;;;;;7.20;73.21;100715.53;4901802;29;20043;-91
2022/10/28 02:49:12;;;;;;;6.88;4.30;;;;;;;7.25;73.32;100725.59;4886209;29;20514;-92
2022/10/28 02:51:47;;;;;;;6.28;4.15;;;;;;;7.27;73.56;100734.25;4888025;29;20149;-91
2022/10/28 02:54:25;;;;;;;9.57;3.88;;;;;;;7.20;73.53;100730.75;4900132;29;20039;-91
2022/10/28 02:56:53;;;;;;;5.72;3.95;;;;;;;7.29;73.23;100718.78;4886862;29;20027;-92
2022/10/28 02:59:19;;;;;;;5.80;3.75;;;;;;;7.41;72.89;100727.78;4894089;29;20047;-92
2022/10/28 03:01:44;;;;;;;8.02;4.00;;;;;;;7.41;73.10;100726.97;4883379;29;20388;-93
2022/10/28 03:04:10;;;;;;;7.35;4.30;;;;;;;7.20;72.83;100710.19;4885417;29;20035;-90
2022/10/28 03:06:35;;;;;;;9.45;4.22;;;;;;;7.12;73.24;100709.56;4884500;29;20418;-90
2022/10/28 03:09:01;;;;;;;8.40;4.30;;;;;;;7.05;73.24;100710.41;4897484;29;20024;-92
2022/10/28 03:11:26;;;;;;;9.32;4.57;;;;;;;7.04;73.25;100710.66;4899262;29;20474;-92
2022/10/28 03:13:52;;;;;;;7.75;4.38;;;;;;;7.06;73.42;100709.41;4895949;29;20454;-92
2022/10/28 03:16:17;;;;;;;7.25;3.92;;;;;;;7.07;73.26;100715.56;4884346;29;20110;-92
2022/10/28 03:18:43;;;;;;;6.85;3.88;;;;;;;7.05;72.90;100718.47;4883923;29;20573;-94
2022/10/28 03:21:08;;;;;;;5.57;3.53;;;;;;;7.17;72.88;100732.03;4889426;29;20027;-92
2022/10/28 03:23:36;;;;;;;6.57;3.47;;;;;;;6.99;73.03;100715.81;4883130;29;20554;-92
2022/10/28 03:26:02;;;;;;;6.28;3.67;;;;;;;7.10;72.97;100723.19;4896721;29;20091;-91
2022/10/28 03:28:27;;;;;;;6.78;3.20;;;;;;;7.25;72.19;100709.53;4888225;29;20491;-92
2022/10/28 03:30:53;;;;;;;6.07;2.92;;;;;;;7.53;72.55;100735.97;4883528;29;20028;-92
2022/10/28 03:33:21;;;;;;;6.38;3.00;;;;;;;7.62;72.35;100717.78;4886613;29;20529;-91
2022/10/28 03:35:47;;;;;;;6.45;2.80;;;;;;;7.72;71.99;100725.34;4887793;29;20115;-90
2022/10/28 03:38:12;;;;;;;6.10;3.22;;;;;;;7.76;71.51;100719.34;4887289;29;20122;-91
2022/10/28 03:40:54;;;;;;;7.32;3.20;;;;;;;7.87;71.45;100720.50;4899568;29;20483;-90
2022/10/28 03:43:55;;;;;;;7.30;3.13;;;;;;;7.83;71.11;100719.31;4873197;29;20494;-92
2022/10/28 03:46:28;;;;;;;7.75;3.60;;;;;;;8.06;70.71;100741.00;4908357;29;20063;-89
2022/10/28 03:48:55;;;;;;;8.82;3.80;;;;;;;7.68;71.70;100722.28;4887975;29;20044;-89
2022/10/28 03:51:20;;;;;;;5.68;3.50;;;;;;;7.59;71.46;100710.16;4898584;29;20042;-92
2022/10/28 03:53:48;;;;;;;6.15;3.92;;;;;;;7.48;72.02;100714.34;4884129;29;20032;-90
2022/10/28 03:56:14;;;;;;;6.85;3.35;;;;;;;7.52;71.62;100704.03;4885038;29;20066;-92
2022/10/28 03:58:39;;;;;;;6.78;4.10;;;;;;;7.69;71.35;100719.38;4869076;29;20519;-91
2022/10/28 04:01:05;;;;;;;5.07;3.30;;;;;;;7.57;72.39;100725.63;4900215;29;20119;-90
2022/10/28 04:03:33;;;;;;;6.68;3.42;;;;;;;7.52;71.59;100709.41;4915315;29;20032;-89
2022/10/28 04:05:59;;;;;;;5.40;3.42;;;;;;;7.63;71.27;100706.03;4902627;29;20026;-91
2022/10/28 04:08:27;;;;;;;11.65;4.53;;;;;;;7.97;71.16;100741.47;4890329;29;20115;-91
2022/10/28 04:10:53;;;;;;;13.40;4.15;;;;;;;7.72;70.59;100706.56;4896526;29;20043;-91
2022/10/28 04:13:18;;;;;;;8.55;3.60;;;;;;;7.61;70.62;100703.53;4895827;29;20027;-91
2022/10/28 04:15:44;;;;;;;7.32;3.80;;;;;;;7.84;71.66;100739.69;4902090;29;20043;-91
2022/10/28 04:18:11;;;;;;;9.82;4.53;;;;;;;7.46;71.14;100690.44;4902755;29;20023;-91
2022/10/28 04:20:36;;;;;;;5.50;3.72;;;;;;;7.54;71.06;100736.81;4886643;29;20080;-91
2022/10/28 04:23:06;;;;;;;11.07;4.22;;;;;;;7.41;70.26;100721.63;4903352;29;20039;-91
2022/10/28 04:25:31;;;;;;;8.48;4.10;;;;;;;7.27;70.03;100723.53;4887649;29;20126;-91
2022/10/28 04:27:59;;;;;;;8.82;4.13;;;;;;;7.04;71.03;100711.47;4886920;29;20517;-91
2022/10/28 04:30:25;;;;;;;11.95;5.03;;;;;;;6.99;71.30;100721.16;4902512;29;20087;-92
2022/10/28 04:32:53;;;;;;;7.20;4.40;;;;;;;7.04;71.69;100735.56;4900015;29;20035;-93
2022/10/28 04:35:18;;;;;;;8.98;4.57;;;;;;;6.84;72.12;100721.41;4906811;29;20032;-93
2022/10/28 04:37:44;;;;;;;11.43;4.28;;;;;;;6.82;72.23;100726.97;4882093;29;20078;-92
2022/10/28 04:40:12;;;;;;;16.90;7.82;;;;;;;6.77;72.86;100729.47;4908223;29;20035;-92
2022/10/28 04:42:37;;;;;;;7.32;4.38;;;;;;;6.71;72.52;100718.78;4896284;29;20091;-93
2022/10/28 04:45:03;;;;;;;10.75;5.40;;;;;;;6.55;73.19;100706.66;4894417;29;20032;-92
2022/10/28 04:47:29;;;;;;;7.55;3.97;;;;;;;6.49;72.79;100705.63;4906447;29;20521;-92
2022/10/28 04:49:54;;;;;;;12.32;4.68;;;;;;;6.68;72.87;100717.34;4921922;29;20142;-95
2022/10/28 04:52:20;;;;;;;8.60;4.43;;;;;;;6.60;73.37;100717.56;4892873;29;20432;-93
2022/10/28 04:54:45;;;;;;;7.32;4.20;;;;;;;6.64;72.59;100708.94;4908669;29;20028;-93
2022/10/28 04:57:11;;;;;;;9.75;4.38;;;;;;;6.84;72.76;100737.47;4909969;29;20414;-91
2022/10/28 04:59:37;;;;;;;9.35;4.07;;;;;;;6.79;72.85;100737.31;4892084;29;20060;-92
2022/10/28 05:02:02;;;;;;;15.88;5.07;;;;;;;6.80;72.39;100723.69;4911143;29;20482;-92
2022/10/28 05:04:28;;;;;;;8.57;4.57;;;;;;;6.99;72.28;100743.44;4908504;29;20082;-92
2022/10/28 05:06:54;;;;;;;11.10;5.35;;;;;;;6.86;72.20;100725.53;4906999;29;20082;-91
2022/10/28 05:09:19;;;;;;;16.27;5.60;;;;;;;7.03;72.27;100743.81;4892604;29;20038;-94
2022/10/28 05:11:45;;;;;;;10.95;6.10;;;;;;;7.09;72.19;100748.31;4904160;29;20028;-94
2022/10/28 05:14:19;;;;;;;13.68;5.55;;;;;;;7.04;71.80;100732.91;4893332;29;20083;-95
2022/10/28 05:16:48;;;;;;;16.88;6.40;;;;;;;7.21;71.52;100732.41;4892584;29;20499;-94
2022/10/28 05:19:16;;;;;;;10.88;4.75;;;;;;;7.31;71.04;100726.63;4907010;29;20114;-93
2022/10/28 05:21:44;;;;;;;9.50;5.43;;;;;;;7.52;70.48;100738.88;4882035;29;20035;-93
2022/10/28 05:24:15;;;;;;;9.25;5.20;;;;;;;7.65;70.08;100728.88;4902010;29;20054;-92
2022/10/28 05:26:41;;;;;;;7.38;4.75;;;;;;;7.82;69.96;100758.72;4903331;29;20486;-94
2022/10/28 05:29:06;;;;;;;12.40;5.28;;;;;;;7.73;69.55;100746.59;4893750;29;20038;-93
2022/10/28 05:31:34;;;;;;;11.75;4.18;;;;;;;7.90;70.07;100769.16;4877400;29;20487;-94
2022/10/28 05:34:08;;;;;;;7.55;4.32;;;;;;;7.96;69.76;100742.50;4906024;29;20023;-95
2022/10/28 05:36:33;;;;;;;4.97;3.53;;;;;;;7.84;70.09;100753.94;4892480;29;20023;-92
2022/10/28 05:38:59;;;;;;;10.45;4.47;;;;;;;7.78;70.34;100751.28;4921612;29;20410;-92
2022/10/28 05:41:25;;;;;;;9.70;5.50;;;;;;;7.73;70.40;100767.22;4891438;29;20070;-91
2022/10/28 05:43:54;;;;;;;6.85;4.70;;;;;;;7.50;70.74;100755.16;4924814;29;20028;-92
2022/10/28 05:46:21;;;;;;;11.48;5.20;;;;;;;7.54;70.14;100752.88;4888105;29;20028;-93
2022/10/28 05:48:46;;;;;;;11.90;5.70;;;;;;;7.58;70.23;100762.16;4902224;29;20554;-93
2022/10/28 05:51:12;;;;;;;13.30;5.32;;;;;;;7.56;69.99;100753.50;4897971;29;20035;-93
2022/10/28 05:53:46;;;;;;;9.40;5.63;;;;;;;7.73;70.54;100788.66;4905866;29;20027;-92
2022/10/28 05:56:11;;;;;;;9.68;5.53;;;;;;;7.71;70.38;100770.09;4907476;29;20034;-92
2022/10/28 05:58:37;;;;;;;18.75;6.13;;;;;;;7.92;69.64;100768.13;4905304;29;20047;-92
2022/10/28 06:01:05;;;;;;;8.93;6.20;;;;;;;8.09;69.34;100774.59;4890095;29;20027;-94
2022/10/28 06:03:31;;;;;;;8.23;4.95;;;;;;;8.18;69.76;100770.63;4906131;29;20031;-92
2022/10/28 06:05:57;;;;;;;19.20;4.95;;;;;;;8.16;69.52;100758.47;4905003;29;20486;-91
2022/10/28 06:08:22;;;;;;;9.88;4.60;;;;;;;8.18;69.77;100773.31;4889826;29;20047;-91
2022/10/28 06:10:51;;;;;;;5.53;3.58;;;;;;;8.27;69.90;100773.84;4902110;29;20028;-94
2022/10/28 06:13:17;;;;;;;8.23;4.25;;;;;;;8.28;69.54;100776.31;4888880;29;20081;-93
2022/10/28 06:15:43;;;;;;;9.18;4.57;;;;;;;8.46;69.25;100772.88;4886791;29;20035;-94
2022/10/28 06:18:08;;;;;;;11.27;4.18;;;;;;;8.60;67.90;100760.19;4898007;29;20035;-93
2022/10/28 06:20:34;;;;;;;7.38;4.53;;;;;;;8.78;68.75;100793.47;4907108;29;20035;-94
2022/10/28 06:22:59;;;;;;;6.57;4.20;;;;;;;8.81;67.95;100785.78;4890700;29;20019;-94
2022/10/28 06:25:25;;;;;;;11.05;4.35;;;;;;;8.87;68.34;100779.53;4905521;29;20030;-95
2022/10/28 06:27:57;;;;;;;5.30;3.60;;;;;;;8.90;67.71;100776.41;4905691;29;20038;-95
2022/10/28 06:30:24;;;;;;;13.20;6.47;;;;;;;9.01;67.10;100780.22;4906628;29;20106;-94
2022/10/28 06:32:49;;;;;;;11.85;6.00;;;;;;;9.05;67.65;100775.25;4921765;29;20031;-95
2022/10/28 06:35:15;;;;;;;10.77;5.32;;;;;;;9.25;67.23;100797.31;4905489;29;20020;-92
2022/10/28 06:37:41;;;;;;;12.85;4.53;;;;;;;9.26;67.39;100788.22;4906237;29;20035;-92
2022/10/28 06:40:07;;;;;;;13.02;6.28;;;;;;;9.27;66.01;100781.78;4906013;29;20026;-93
2022/10/28 06:42:59;;;;;;;7.75;4.65;;;;;;;9.71;65.11;100800.47;4901789;29;20114;-94
2022/10/28 06:45:27;;;;;;;7.05;3.70;;;;;;;9.83;64.75;100787.06;4908140;29;20044;-94
2022/10/28 06:48:12;;;;;;;9.10;4.40;;;;;;;10.03;64.25;100789.47;4916686;29;20031;-95
2022/10/28 06:50:49;;;;;;;15.80;4.50;;;;;;;10.04;64.62;100773.13;4892434;29;20125;-96
2022/10/28 06:53:36;;;;;;;9.73;4.15;;;;;;;10.24;64.38;100797.00;4898483;29;20028;-96
2022/10/28 06:56:02;;;;;;;5.97;3.88;;;;;;;10.35;63.68;100789.22;4892080;29;20179;-93
2022/10/28 06:58:33;;;;;;;10.18;4.20;;;;;;;10.35;63.74;100763.13;4889054;29;20051;-95
2022/10/28 07:01:14;;;;;;;6.57;3.80;;;;;;;10.66;62.69;100798.84;4876990;29;20036;-95
2022/10/28 07:04:10;;;;;;;7.60;4.25;;;;;;;10.58;62.78;100753.41;4919610;29;20043;-95
2022/10/28 07:06:35;;;;;;;7.57;3.78;;;;;;;10.70;62.42;100767.69;4890911;29;20031;-93
2022/10/28 07:09:19;;;;;;;8.15;3.75;;;;;;;10.80;62.11;100769.81;4906643;29;20032;-95
2022/10/28 07:11:53;;;;;;;26.08;12.38;;;;;;;10.80;62.00;100753.66;4919901;29;20096;-95
2022/10/28 07:14:24;;;;;;;11.13;4.97;;;;;;;10.97;61.48;100757.25;4906442;29;20075;-94
2022/10/28 07:16:54;;;;;;;6.45;3.97;;;;;;;11.09;61.41;100760.75;4912476;29;20038;-95
2022/10/28 07:19:19;;;;;;;8.45;4.10;;;;;;;11.25;60.85;100767.28;4904813;29;20063;-94
2022/10/28 07:21:48;;;;;;;12.02;4.60;;;;;;;11.39;61.00;100777.78;4901192;29;20036;-96
2022/10/28 07:24:23;;;;;;;12.25;4.38;;;;;;;11.53;60.06;100765.66;4907766;29;20028;-96
2022/10/28 07:27:03;;;;;;;5.95;3.40;;;;;;;11.59;59.82;100769.28;4926432;29;20163;-96
2022/10/28 07:30:00;;;;;;;4.95;3.28;;;;;;;11.59;60.01;100759.31;4932174;29;20031;-95
2022/10/28 07:32:37;;;;;;;7.88;3.88;;;;;;;11.66;59.93;100765.38;4927048;29;20038;-96
2022/10/28 07:35:36;;;;;;;7.70;3.60;;;;;;;11.87;59.35;100779.22;4911763;29;20031;-96
2022/10/28 07:38:10;;;;;;;10.90;3.63;;;;;;;11.81;59.22;100750.53;4918862;29;20028;-96
2022/10/28 07:40:36;;;;;;;13.65;4.57;;;;;;;12.15;59.17;100772.19;4912003;29;20036;-96
2022/10/28 07:43:09;;;;;;;11.73;4.55;;;;;;;12.25;58.74;100772.38;4930993;29;20039;-95
2022/10/28 07:45:42;;;;;;;10.23;5.80;;;;;;;12.29;58.79;100768.13;4898511;29;20044;-95
2022/10/28 07:48:31;;;;;;;9.10;4.15;;;;;;;12.36;58.33;100743.66;4896053;29;20063;-96
2022/10/28 07:51:35;;;;;;;6.15;3.10;;;;;;;12.68;57.42;100768.19;4899095;29;20039;-96
2022/10/28 07:57:54;;;;;;;4.38;2.88;;;;;;;13.12;55.86;100769.06;4880897;29;20051;-95
2022/10/28 08:00:20;;;;;;;5.60;3.75;;;;;;;13.08;55.66;100740.06;4894922;29;20368;-91
2022/10/28 08:02:48;;;;;;;6.35;3.35;;;;;;;13.38;55.17;100763.16;4903624;29;20131;-94
2022/10/28 08:06:02;;;;;;;7.65;3.90;;;;;;;13.43;54.15;100737.00;4890178;29;20028;-96
2022/10/28 08:11:56;;;;;;;4.32;2.97;;;;;;;13.73;53.73;100751.91;4889992;29;20075;-96
2022/10/28 08:14:24;;;;;;;4.88;2.97;;;;;;;13.84;52.98;100739.28;4913854;29;20046;-94
2022/10/28 08:16:52;;;;;;;7.75;3.90;;;;;;;13.98;52.76;100743.22;4906993;29;20083;-95
2022/10/28 08:19:18;;;;;;;9.88;4.15;;;;;;;14.07;52.57;100743.56;4887612;29;20047;-95
2022/10/28 08:21:54;;;;;;;9.65;4.10;;;;;;;14.25;52.51;100743.16;4916356;29;20040;-96
2022/10/28 08:24:19;;;;;;;9.93;5.68;;;;;;;14.41;52.18;100741.41;4931033;29;20091;-94
2022/10/28 08:29:39;;;;;;;10.18;4.40;;;;;;;14.47;51.99;100728.72;4903809;29;20036;-95
2022/10/28 08:32:11;;;;;;;7.38;4.18;;;;;;;14.69;51.83;100734.84;4892651;29;20023;-95
2022/10/28 08:34:37;;;;;;;8.70;4.18;;;;;;;14.88;50.83;100737.94;4916696;29;20039;-96
2022/10/28 08:37:05;;;;;;;8.52;4.03;;;;;;;14.98;50.47;100739.03;4917362;29;20047;-95
2022/10/28 08:39:34;;;;;;;8.45;4.47;;;;;;;15.11;50.46;100754.84;4892764;29;20027;-94
2022/10/28 08:42:24;;;;;;;13.63;4.57;;;;;;;15.24;50.51;100758.97;4885387;29;20430;-94
2022/10/28 08:45:17;;;;;;;7.97;3.95;;;;;;;15.39;50.23;100764.44;4934368;29;20031;-95
2022/10/28 08:48:17;;;;;;;8.93;3.40;;;;;;;15.34;50.07;100723.72;4915929;29;20038;-96
2022/10/28 08:50:49;;;;;;;6.97;4.00;;;;;;;15.52;49.48;100727.84;4916466;29;20043;-95
2022/10/28 08:56:37;;;;;;;9.15;3.70;;;;;;;15.85;49.28;100748.28;4953717;29;20142;-96
2022/10/28 08:59:08;;;;;;;5.55;3.58;;;;;;;15.82;49.01;100716.25;4936053;29;20039;-96
2022/10/28 09:02:06;;;;;;;9.88;3.95;;;;;;;15.94;47.87;100719.53;5264706;23;20023;-95
2022/10/28 09:04:39;;;;;;;13.18;4.97;;;;;;;16.18;47.37;100738.00;4934293;29;20041;-95
2022/10/28 09:07:24;;;;;;;8.57;4.45;;;;;;;16.16;46.69;100710.28;4889120;29;20536;-95
2022/10/28 09:09:50;;;;;;;9.45;4.70;;;;;;;16.25;46.96;100708.66;4837232;29;20085;-95
2022/10/28 09:12:42;;;;;;;9.73;4.00;;;;;;;16.47;47.56;100735.50;4833547;29;20045;-94
2022/10/28 09:15:13;;;;;;;;;;;;;;;16.58;45.97;100741.78;4852236;29;20033;-92
2022/10/28 09:17:48;;;;;;;7.75;4.55;;;;;;;16.66;45.68;100730.31;4872545;29;19990;-96
2022/10/28 09:20:26;;;;;;;15.30;4.70;;;;;;;16.70;44.93;100725.94;4863320;29;20068;-96
2022/10/28 09:22:58;;;;;;;8.93;3.15;;;;;;;16.72;45.36;100715.59;4850048;29;20049;-94
2022/10/28 09:25:40;;;;;;;10.63;3.70;;;;;;;16.76;44.32;100703.09;4848157;29;20459;-94
2022/10/28 09:31:35;;;;;;;3.85;2.30;;;;;;;17.03;42.42;100714.72;4881209;29;20137;-94
2022/10/28 09:34:21;;;;;;;5.65;2.60;;;;;;;17.05;42.45;100709.81;4851471;29;20120;-94
2022/10/28 09:43:47;;;;;;;4.20;1.95;;;;;;;17.27;42.00;100687.69;4851071;29;20053;-96
2022/10/28 09:46:34;;;;;;;5.35;2.60;;;;;;;17.41;42.26;100688.69;4847219;29;20103;-94
2022/10/28 09:49:07;;;;;;;5.97;3.08;;;;;;;17.47;43.31;100679.41;4850585;29;20033;-96
2022/10/28 09:51:45;;;;;;;9.23;2.95;;;;;;;17.53;42.82;100669.25;4909588;29;20043;-95
2022/10/28 09:54:14;;;;;;;6.32;3.65;;;;;;;17.55;41.85;100661.63;4926574;29;20036;-95
2022/10/28 09:56:40;;;;;;;2.50;1.92;;;;;;;17.71;41.26;100674.03;4893773;29;20031;-96
2022/10/28 09:59:12;;;;;;;4.10;1.98;;;;;;;17.83;41.65;100676.44;4891055;29;20028;-96
2022/10/28 10:01:40;;;;;;;;;;;;;;;17.97;41.61;100687.47;4884771;29;20047;-96
2022/10/28 10:04:54;;;;;;;5.68;2.63;;;;;;;17.91;41.41;100661.41;4899096;29;19955;-95
2022/10/28 10:07:39;;;;;;;2.80;1.77;;;;;;;18.04;40.46;100651.72;4908090;29;20044;-96
2022/10/28 10:10:20;;;;;;;4.68;2.13;;;;;;;18.16;40.55;100657.63;4914189;29;20119;-92
2022/10/28 10:12:46;;;;;;;2.70;1.60;;;;;;;18.17;40.58;100649.13;4899611;29;20039;-92
2022/10/28 10:15:27;;;;;;;4.15;2.22;;;;;;;18.28;40.26;100641.69;4901010;29;20024;-93
2022/10/28 10:17:56;;;;;;;9.57;2.33;;;;;;;18.35;40.77;100642.13;4896260;29;20043;-96
2022/10/28 10:20:44;;;;;;;3.60;2.15;;;;;;;18.47;40.87;100658.13;4892074;29;20059;-96
2022/10/28 10:23:31;;;;;;;6.10;3.47;;;;;;;18.46;40.94;100642.84;4871604;29;20099;-96
2022/10/28 10:34:43;;;;;;;4.97;2.50;;;;;;;18.66;40.19;100658.16;5010549;23;20129;-96
2022/10/28 10:37:20;;;;;;;5.07;2.30;;;;;;;18.56;40.36;100640.00;4914707;29;20115;-96
2022/10/28 10:40:05;;;;;;;4.90;2.97;;;;;;;18.61;40.76;100635.59;4902170;29;20387;-96
2022/10/28 10:42:37;;;;;;;4.40;2.70;;;;;;;18.64;40.21;100644.00;4904971;29;20467;-96
2022/10/28 10:45:24;;;;;;;7.60;2.40;;;;;;;18.78;40.00;100644.94;4907490;29;20028;-95
2022/10/28 10:48:19;;;;;;;6.18;2.75;;;;;;;18.81;40.00;100640.00;4920317;29;20471;-93
2022/10/28 10:50:48;;;;;;;6.38;2.78;;;;;;;18.83;39.92;100635.06;4893706;29;20036;-95
2022/10/28 10:53:30;;;;;;;3.78;2.20;;;;;;;18.87;39.40;100630.66;4880996;29;20040;-96
2022/10/28 10:56:05;;;;;;;;;;;;;;;18.97;39.92;100649.63;4910129;29;20074;-96
2022/10/28 10:58:38;;;;;;;3.42;2.20;;;;;;;18.82;39.61;100619.78;4910803;29;19965;-96
2022/10/28 11:01:08;;;;;;;4.03;2.20;;;;;;;18.80;39.95;100624.72;4904219;29;20044;-96
2022/10/28 11:04:10;;;;;;;;;;;;;;;;;;;;;
2022/10/28 11:06:45;;;;;;;5.90;3.05;;;;;;;18.77;39.97;100624.19;4894068;29;20048;-94
2022/10/28 11:09:28;;;;;;;3.67;2.55;;;;;;;18.88;39.92;100629.53;4864438;29;20036;-94
2022/10/28 11:11:57;;;;;;;7.30;2.50;;;;;;;18.79;40.12;100618.47;4872428;29;20036;-94
2022/10/28 11:14:31;;;;;;;4.72;2.10;;;;;;;19.00;39.97;100643.56;4854683;29;20032;-93
2022/10/28 11:17:09;;;;;;;4.53;2.20;;;;;;;18.95;39.89;100639.00;4866863;29;20036;-96
2022/10/28 11:19:44;;;;;;;4.85;2.13;;;;;;;18.95;39.67;100628.09;4868814;29;20052;-96
2022/10/28 11:22:27;;;;;;;3.95;2.00;;;;;;;19.09;39.44;100641.00;4875414;29;20601;-94
2022/10/28 11:25:11;;;;;;;3.90;1.70;;;;;;;19.08;39.25;100637.44;4880400;29;20068;-95
2022/10/28 11:31:06;;;;;;;3.63;1.70;;;;;;;19.11;38.93;100633.31;4868185;29;20044;-96
2022/10/28 11:34:08;;;;;;;6.28;1.40;;;;;;;19.11;37.79;100633.31;4881033;29;20051;-96
2022/10/28 11:36:48;;;;;;;1.95;1.25;;;;;;;18.98;37.93;100604.84;4887092;29;20059;-96
2022/10/28 11:39:20;;;;;;;3.70;1.10;;;;;;;19.13;37.18;100617.44;4928690;29;20118;-96
2022/10/28 11:41:54;;;;;;;4.40;1.27;;;;;;;19.23;36.42;100627.44;4923808;29;20027;-96
2022/10/28 11:44:31;;;;;;;2.28;1.52;;;;;;;19.19;36.59;100629.94;4926265;29;20044;-96
2022/10/28 11:47:17;;;;;;;1.70;1.15;;;;;;;19.01;35.94;100598.81;4935417;29;20119;-96
2022/10/28 11:50:23;;;;;;;1.30;1.20;;;;;;;19.26;36.16;100624.09;4914216;29;20175;-96
2022/10/28 11:53:26;;;;;;;2.70;1.60;;;;;;;19.21;36.85;100616.78;4931176;29;20039;-96
2022/10/28 11:56:01;;;;;;;2.92;1.70;;;;;;;19.14;37.07;100617.16;4919627;29;20099;-95
2022/10/28 11:58:31;;;;;;;2.45;1.10;;;;;;;19.10;36.71;100607.13;4918114;29;20487;-96
2022/10/28 12:01:12;;;;;;;1.58;0.95;;;;;;;19.19;36.63;100608.09;4913050;29;20071;-96
2022/10/28 12:04:11;;;;;;;2.60;1.33;;;;;;;19.12;36.49;100597.53;4939316;29;20100;-95
2022/10/28 12:07:15;;;;;;;2.38;1.20;;;;;;;18.98;36.41;100583.81;4918173;29;20036;-96
2022/10/28 12:09:47;;;;;;;4.47;1.83;;;;;;;19.15;37.24;100605.16;4912982;29;20511;-93
2022/10/28 12:12:36;;;;;;;3.47;1.70;;;;;;;19.21;37.03;100608.59;4924947;29;20109;-93
2022/10/28 12:15:22;;;;;;;5.55;1.30;;;;;;;19.17;37.11;100605.66;4915143;29;20048;-94
2022/10/28 12:18:17;;;;;;;3.00;1.30;;;;;;;19.03;37.22;100576.66;4913688;29;20063;-94
2022/10/28 12:21:01;;;;;;;1.85;1.30;;;;;;;19.13;36.89;100601.06;4864742;29;20107;-96
2022/10/28 12:23:32;;;;;;;1.40;0.90;;;;;;;19.07;36.47;100585.88;4936489;29;20156;-96
2022/10/28 12:26:09;;;;;;;3.53;1.40;;;;;;;19.01;36.48;100568.78;4888920;29;20068;-96
2022/10/28 12:29:32;;;;;;;3.20;1.40;;;;;;;19.20;36.78;100601.53;4859554;29;20289;-96
2022/10/28 12:32:08;;;;;;;2.25;1.50;;;;;;;19.03;37.16;100580.22;4898508;29;20033;-96
2022/10/28 12:35:25;;;;;;;2.42;1.58;;;;;;;18.98;37.03;100559.25;4868347;29;20032;-96